Wetterdaten: Sonntag, 27.10.2013
Datum Zeit Temperatur Luftfeuchte Luftdruck Regen Wind Richtung Richtung Taupunkt Windchill Windben
27.10.2013 00:00 8,0 C 88 % 1019,3 hPa 0,0 l/m 0,0 km/h (0 Bft) W-SW 247 6,1 C 8,6 C 0,0 km/h (0 Bft)
27.10.2013 00:05 8,2 C 89 % 1019,1 hPa 0,0 l/m 0,2 km/h (0 Bft) O-NO 67 6,5 C 8,4 C 0,0 km/h (0 Bft)
27.10.2013 00:10 8,5 C 89 % 1019,1 hPa 0,0 l/m 0,2 km/h (0 Bft) N-NO 22 6,8 C 8,3 C 0,0 km/h (0 Bft)
27.10.2013 00:15 8,2 C 89 % 1019,1 hPa 0,0 l/m 0,0 km/h (0 Bft) N-NO 22 6,5 C 8,3 C 0,0 km/h (0 Bft)
27.10.2013 00:20 8,1 C 89 % 1019,1 hPa 0,0 l/m 0,0 km/h (0 Bft) N-NO 22 6,4 C 8,3 C 0,0 km/h (0 Bft)
27.10.2013 00:25 8,0 C 89 % 1018,9 hPa 0,0 l/m 0,0 km/h (0 Bft) N-NO 22 6,3 C 8,4 C 0,0 km/h (0 Bft)
27.10.2013 00:30 8,2 C 89 % 1018,9 hPa 0,0 l/m 0,0 km/h (0 Bft) N-NO 22 6,5 C 8,3 C 0,0 km/h (0 Bft)
27.10.2013 00:35 8,3 C 89 % 1018,9 hPa 0,0 l/m 0,2 km/h (0 Bft) O 90 6,6 C 8,4 C 1,9 km/h (1 Bft)
27.10.2013 00:40 8,5 C 89 % 1018,9 hPa 0,0 l/m 0,6 km/h (0 Bft) S 180 6,8 C 8,6 C 0,0 km/h (0 Bft)
27.10.2013 00:45 8,2 C 89 % 1019,0 hPa 0,0 l/m 1,3 km/h (1 Bft) N 360 6,5 C 8,6 C 4,7 km/h (1 Bft)
27.10.2013 00:50 8,9 C 90 % 1019,0 hPa 0,0 l/m 1,8 km/h (1 Bft) S-SO 157 7,4 C 8,7 C 5,0 km/h (1 Bft)
27.10.2013 00:55 9,0 C 89 % 1019,0 hPa 0,0 l/m 2,4 km/h (1 Bft) O 90 7,3 C 9,1 C 6,4 km/h (2 Bft)
27.10.2013 01:00 8,9 C 89 % 1019,0 hPa 0,0 l/m 1,3 km/h (1 Bft) O 90 7,2 C 9,1 C 0,0 km/h (0 Bft)
27.10.2013 01:05 8,5 C 89 % 1018,8 hPa 0,0 l/m 0,2 km/h (0 Bft) O-SO 112 6,8 C 9,0 C 2,1 km/h (1 Bft)
27.10.2013 01:10 8,7 C 89 % 1018,8 hPa 0,0 l/m 0,3 km/h (0 Bft) N-NO 22 7,0 C 8,9 C 0,0 km/h (0 Bft)
27.10.2013 01:15 8,8 C 89 % 1018,8 hPa 0,0 l/m 0,6 km/h (0 Bft) W-SW 247 7,1 C 8,7 C 1,8 km/h (1 Bft)
27.10.2013 01:20 8,5 C 88 % 1018,8 hPa 0,0 l/m 0,5 km/h (0 Bft) S 180 6,6 C 8,7 C 0,0 km/h (0 Bft)
27.10.2013 01:25 8,8 C 89 % 1018,6 hPa 0,0 l/m 0,3 km/h (0 Bft) O-SO 112 7,1 C 8,7 C 2,9 km/h (1 Bft)
27.10.2013 01:30 9,4 C 88 % 1018,6 hPa 0,0 l/m 0,5 km/h (0 Bft) O-SO 112 7,5 C 8,8 C 0,0 km/h (0 Bft)
27.10.2013 01:35 9,6 C 88 % 1018,6 hPa 0,0 l/m 1,1 km/h (1 Bft) NO 45 7,7 C 8,8 C 0,0 km/h (0 Bft)
27.10.2013 01:40 8,7 C 87 % 1018,6 hPa 0,0 l/m 0,6 km/h (0 Bft) O-NO 67 6,7 C 8,8 C 0,0 km/h (0 Bft)
27.10.2013 01:45 9,0 C 87 % 1018,5 hPa 0,0 l/m 0,2 km/h (0 Bft) S-SO 157 7,0 C 8,6 C 0,0 km/h (0 Bft)
27.10.2013 01:50 8,2 C 86 % 1018,5 hPa 0,0 l/m 0,2 km/h (0 Bft) S-SO 157 6,0 C 8,4 C 0,0 km/h (0 Bft)
27.10.2013 01:55 7,8 C 87 % 1018,5 hPa 0,0 l/m 0,0 km/h (0 Bft) O 90 5,8 C 8,0 C 0,0 km/h (0 Bft)
27.10.2013 02:00 7,8 C 87 % 1018,5 hPa 0,0 l/m 0,0 km/h (0 Bft) O 90 5,8 C 8,0 C 0,0 km/h (0 Bft)
27.10.2013 02:05 8,7 C 88 % 1018,5 hPa 0,0 l/m 0,6 km/h (0 Bft) SO 135 6,8 C 8,0 C 0,0 km/h (0 Bft)
27.10.2013 02:10 7,9 C 87 % 1018,5 hPa 0,0 l/m 0,6 km/h (0 Bft) O-NO 67 5,9 C 7,9 C 0,0 km/h (0 Bft)
27.10.2013 02:15 7,8 C 87 % 1018,5 hPa 0,0 l/m 0,0 km/h (0 Bft) NO 45 5,8 C 7,6 C 0,0 km/h (0 Bft)
27.10.2013 02:20 8,7 C 88 % 1018,5 hPa 0,0 l/m 0,3 km/h (0 Bft) NO 45 6,8 C 7,8 C 0,0 km/h (0 Bft)
27.10.2013 02:25 8,5 C 88 % 1018,4 hPa 0,0 l/m 0,6 km/h (0 Bft) O-NO 67 6,6 C 7,8 C 3,1 km/h (1 Bft)
27.10.2013 02:30 9,1 C 87 % 1018,4 hPa 0,0 l/m 1,0 km/h (0 Bft) NO 45 7,1 C 8,1 C 0,0 km/h (0 Bft)
27.10.2013 02:35 7,8 C 86 % 1018,4 hPa 0,0 l/m 1,0 km/h (0 Bft) O 90 5,6 C 8,0 C 0,0 km/h (0 Bft)
27.10.2013 02:40 7,8 C 87 % 1018,4 hPa 0,0 l/m 0,0 km/h (0 Bft) NO 45 5,8 C 7,8 C 0,0 km/h (0 Bft)
27.10.2013 02:45 7,7 C 87 % 1018,6 hPa 0,0 l/m 0,0 km/h (0 Bft) NO 45 5,7 C 7,8 C 0,0 km/h (0 Bft)
27.10.2013 02:50 7,9 C 87 % 1018,6 hPa 0,0 l/m 0,0 km/h (0 Bft) O-SO 112 5,9 C 7,6 C 0,0 km/h (0 Bft)
27.10.2013 02:55 7,7 C 87 % 1018,6 hPa 0,0 l/m 0,2 km/h (0 Bft) O 90 5,7 C 7,7 C 0,0 km/h (0 Bft)
27.10.2013 02:00 8,3 C 88 % 1018,6 hPa 0,0 l/m 0,5 km/h (0 Bft) O 90 6,4 C 7,8 C 2,1 km/h (1 Bft)
27.10.2013 02:05 8,0 C 87 % 1018,1 hPa 0,0 l/m 0,3 km/h (0 Bft) O-SO 112 6,0 C 7,8 C 0,0 km/h (0 Bft)
27.10.2013 02:10 7,6 C 87 % 1018,1 hPa 0,0 l/m 0,5 km/h (0 Bft) NW 315 5,6 C 7,8 C 1,9 km/h (1 Bft)
27.10.2013 02:15 7,4 C 87 % 1018,1 hPa 0,0 l/m 0,6 km/h (0 Bft) O 90 5,4 C 7,5 C 0,0 km/h (0 Bft)
27.10.2013 02:20 7,5 C 87 % 1018,1 hPa 0,0 l/m 1,0 km/h (0 Bft) S 180 5,5 C 7,5 C 4,3 km/h (1 Bft)
27.10.2013 02:25 9,3 C 87 % 1018,3 hPa 0,0 l/m 4,0 km/h (1 Bft) O 90 7,2 C 7,9 C 9,8 km/h (2 Bft)
27.10.2013 02:30 9,7 C 86 % 1018,3 hPa 0,0 l/m 5,6 km/h (1 Bft) O 90 7,5 C 8,2 C 2,4 km/h (1 Bft)
27.10.2013 02:35 8,8 C 85 % 1018,3 hPa 0,0 l/m 2,1 km/h (1 Bft) W-SW 247 6,4 C 8,9 C 0,0 km/h (0 Bft)
27.10.2013 02:40 7,8 C 84 % 1018,3 hPa 0,0 l/m 0,5 km/h (0 Bft) O-NO 67 5,3 C 8,5 C 0,0 km/h (0 Bft)
27.10.2013 02:45 7,3 C 84 % 1018,7 hPa 0,0 l/m 0,2 km/h (0 Bft) O-SO 112 4,8 C 8,0 C 1,6 km/h (1 Bft)
27.10.2013 02:50 8,1 C 85 % 1018,7 hPa 0,0 l/m 0,2 km/h (0 Bft) NO 45 5,7 C 7,9 C 0,0 km/h (0 Bft)
27.10.2013 02:55 8,8 C 86 % 1018,7 hPa 0,0 l/m 0,5 km/h (0 Bft) N 360 6,6 C 8,0 C 0,0 km/h (0 Bft)
27.10.2013 03:00 7,7 C 85 % 1018,7 hPa 0,0 l/m 0,3 km/h (0 Bft) W-NW 292 5,3 C 8,0 C 0,0 km/h (0 Bft)
27.10.2013 03:05 7,3 C 85 % 1018,9 hPa 0,0 l/m 0,3 km/h (0 Bft) O-NO 67 4,9 C 7,7 C 3,9 km/h (1 Bft)
27.10.2013 03:10 7,9 C 86 % 1018,9 hPa 0,0 l/m 1,0 km/h (0 Bft) S-SO 157 5,7 C 8,0 C 3,4 km/h (1 Bft)
27.10.2013 03:15 9,2 C 86 % 1018,9 hPa 0,0 l/m 2,3 km/h (1 Bft) SO 135 7,0 C 9,4 C 2,3 km/h (1 Bft)
27.10.2013 03:20 10,6 C 85 % 1018,9 hPa 0,0 l/m 3,2 km/h (1 Bft) O-SO 112 8,2 C 10,3 C 5,0 km/h (1 Bft)
27.10.2013 03:25 10,6 C 82 % 1019,0 hPa 0,0 l/m 2,6 km/h (1 Bft) SO 135 7,7 C 10,8 C 0,0 km/h (0 Bft)
27.10.2013 03:30 10,1 C 80 % 1019,0 hPa 0,0 l/m 1,3 km/h (1 Bft) N-NO 22 6,8 C 10,7 C 0,0 km/h (0 Bft)
27.10.2013 03:35 9,6 C 80 % 1019,0 hPa 0,0 l/m 0,2 km/h (0 Bft) N-NO 22 6,3 C 10,4 C 0,0 km/h (0 Bft)
27.10.2013 03:40 9,5 C 80 % 1019,0 hPa 0,0 l/m 0,2 km/h (0 Bft) NO 45 6,2 C 10,2 C 1,8 km/h (1 Bft)
27.10.2013 03:45 9,8 C 80 % 1019,4 hPa 0,0 l/m 0,5 km/h (0 Bft) N 360 6,5 C 10,1 C 0,0 km/h (0 Bft)
27.10.2013 03:50 8,8 C 80 % 1019,4 hPa 0,0 l/m 1,0 km/h (0 Bft) W-SW 247 5,5 C 9,9 C 3,9 km/h (1 Bft)
27.10.2013 03:55 9,0 C 81 % 1019,4 hPa 0,0 l/m 1,6 km/h (1 Bft) NO 45 5,9 C 9,2 C 3,9 km/h (1 Bft)
27.10.2013 04:00 9,7 C 81 % 1019,4 hPa 0,0 l/m 2,7 km/h (1 Bft) NO 45 6,6 C 9,3 C 4,5 km/h (1 Bft)
27.10.2013 04:05 10,7 C 79 % 1019,5 hPa 0,0 l/m 3,5 km/h (1 Bft) O 90 7,2 C 9,8 C 6,0 km/h (2 Bft)
27.10.2013 04:10 11,1 C 77 % 1019,5 hPa 0,0 l/m 3,2 km/h (1 Bft) O 90 7,2 C 10,2 C 2,1 km/h (1 Bft)
27.10.2013 04:15 11,2 C 76 % 1019,5 hPa 0,0 l/m 3,2 km/h (1 Bft) O 90 7,1 C 10,5 C 3,1 km/h (1 Bft)
27.10.2013 04:20 11,1 C 76 % 1019,5 hPa 0,0 l/m 2,6 km/h (1 Bft) O 90 7,0 C 10,6 C 2,1 km/h (1 Bft)
27.10.2013 04:25 11,4 C 75 % 1019,4 hPa 0,0 l/m 2,4 km/h (1 Bft) O-SO 112 7,1 C 10,8 C 2,6 km/h (1 Bft)
27.10.2013 04:30 11,6 C 74 % 1019,4 hPa 0,0 l/m 3,1 km/h (1 Bft) O-NO 67 7,1 C 11,1 C 2,4 km/h (1 Bft)
27.10.2013 04:35 11,0 C 74 % 1019,4 hPa 0,0 l/m 2,1 km/h (1 Bft) SO 135 6,5 C 11,3 C 0,0 km/h (0 Bft)
27.10.2013 04:40 9,9 C 74 % 1019,4 hPa 0,0 l/m 1,4 km/h (1 Bft) O 90 5,5 C 11,1 C 4,8 km/h (1 Bft)
27.10.2013 04:45 11,0 C 75 % 1019,4 hPa 0,0 l/m 1,8 km/h (1 Bft) S 180 6,7 C 11,4 C 0,0 km/h (0 Bft)
27.10.2013 04:50 9,5 C 74 % 1019,4 hPa 0,0 l/m 1,9 km/h (1 Bft) O-SO 112 5,1 C 11,2 C 2,9 km/h (1 Bft)
27.10.2013 04:55 11,1 C 77 % 1019,4 hPa 0,0 l/m 2,7 km/h (1 Bft) O-SO 112 7,2 C 11,4 C 5,6 km/h (1 Bft)
27.10.2013 05:00 11,5 C 75 % 1019,4 hPa 0,0 l/m 3,5 km/h (1 Bft) S-SO 157 7,2 C 11,7 C 1,6 km/h (1 Bft)
27.10.2013 05:05 8,8 C 76 % 1019,3 hPa 0,0 l/m 1,9 km/h (1 Bft) O 90 4,8 C 10,6 C 2,1 km/h (1 Bft)
27.10.2013 05:10 8,4 C 76 % 1019,3 hPa 0,0 l/m 0,3 km/h (0 Bft) O 90 4,4 C 9,9 C 0,0 km/h (0 Bft)
27.10.2013 05:15 8,1 C 79 % 1019,3 hPa 0,0 l/m 0,5 km/h (0 Bft) O 90 4,7 C 9,0 C 2,9 km/h (1 Bft)
27.10.2013 05:20 8,2 C 79 % 1019,3 hPa 0,0 l/m 0,8 km/h (0 Bft) O 90 4,8 C 8,7 C 2,1 km/h (1 Bft)
27.10.2013 05:25 8,6 C 80 % 1019,6 hPa 0,0 l/m 1,1 km/h (1 Bft) S-SO 157 5,3 C 8,7 C 3,1 km/h (1 Bft)
27.10.2013 05:30 10,1 C 82 % 1019,6 hPa 0,0 l/m 1,8 km/h (1 Bft) SO 135 7,2 C 9,1 C 0,0 km/h (0 Bft)
27.10.2013 05:35 8,5 C 80 % 1019,6 hPa 0,0 l/m 1,3 km/h (1 Bft) O-NO 67 5,3 C 9,0 C 2,3 km/h (1 Bft)
27.10.2013 05:40 9,3 C 82 % 1019,6 hPa 0,0 l/m 0,8 km/h (0 Bft) O 90 6,4 C 9,2 C 3,1 km/h (1 Bft)
27.10.2013 05:45 10,9 C 82 % 1019,5 hPa 0,0 l/m 2,6 km/h (1 Bft) O 90 7,9 C 10,0 C 3,4 km/h (1 Bft)
27.10.2013 05:50 11,0 C 80 % 1019,5 hPa 0,0 l/m 2,9 km/h (1 Bft) O-NO 67 7,7 C 10,4 C 2,6 km/h (1 Bft)
27.10.2013 05:55 10,9 C 80 % 1019,5 hPa 0,0 l/m 2,4 km/h (1 Bft) SO 135 7,6 C 10,8 C 3,7 km/h (1 Bft)
27.10.2013 06:00 11,0 C 79 % 1019,5 hPa 0,0 l/m 2,4 km/h (1 Bft) O-SO 112 7,5 C 11,0 C 2,4 km/h (1 Bft)
27.10.2013 06:05 10,7 C 79 % 1019,2 hPa 0,0 l/m 2,1 km/h (1 Bft) O 90 7,2 C 11,0 C 0,0 km/h (0 Bft)
27.10.2013 06:10 9,5 C 79 % 1019,2 hPa 0,0 l/m 1,1 km/h (1 Bft) O-SO 112 6,0 C 10,5 C 3,2 km/h (1 Bft)
27.10.2013 06:15 10,5 C 80 % 1019,2 hPa 0,0 l/m 2,9 km/h (1 Bft) O 90 7,2 C 10,5 C 5,0 km/h (1 Bft)
27.10.2013 06:20 10,4 C 80 % 1019,2 hPa 0,0 l/m 3,2 km/h (1 Bft) O-NO 67 7,1 C 10,5 C 3,2 km/h (1 Bft)
27.10.2013 06:25 10,0 C 79 % 1019,2 hPa 0,0 l/m 1,6 km/h (1 Bft) S 180 6,5 C 10,4 C 0,0 km/h (0 Bft)
27.10.2013 06:30 8,6 C 79 % 1019,2 hPa 0,0 l/m 1,3 km/h (1 Bft) N-NO 22 5,2 C 9,9 C 2,3 km/h (1 Bft)
27.10.2013 06:35 8,2 C 81 % 1019,2 hPa 0,0 l/m 0,8 km/h (0 Bft) N 360 5,1 C 9,0 C 0,0 km/h (0 Bft)
27.10.2013 06:40 8,6 C 83 % 1019,2 hPa 0,0 l/m 1,3 km/h (1 Bft) S 180 5,9 C 9,0 C 3,1 km/h (1 Bft)
27.10.2013 06:45 8,6 C 83 % 1019,6 hPa 0,0 l/m 1,8 km/h (1 Bft) O-NO 67 5,9 C 9,1 C 1,6 km/h (1 Bft)
27.10.2013 06:50 10,2 C 85 % 1019,6 hPa 0,0 l/m 3,7 km/h (1 Bft) S-SO 157 7,8 C 9,3 C 14,3 km/h (3 Bft)
27.10.2013 06:55 11,4 C 84 % 1019,6 hPa 0,0 l/m 5,6 km/h (1 Bft) S-SO 157 8,8 C 10,7 C 9,7 km/h (2 Bft)
27.10.2013 07:00 11,9 C 83 % 1019,6 hPa 0,0 l/m 6,6 km/h (2 Bft) S 180 9,1 C 11,5 C 15,3 km/h (3 Bft)
27.10.2013 07:05 12,3 C 79 % 1019,9 hPa 0,0 l/m 7,7 km/h (2 Bft) S 180 8,8 C 11,8 C 6,3 km/h (2 Bft)
27.10.2013 07:10 12,6 C 78 % 1019,9 hPa 0,0 l/m 8,0 km/h (2 Bft) S 180 8,9 C 11,9 C 8,2 km/h (2 Bft)
27.10.2013 07:15 12,6 C 78 % 1019,9 hPa 0,0 l/m 7,1 km/h (2 Bft) S 180 8,9 C 13,0 C 5,3 km/h (1 Bft)
27.10.2013 07:20 12,7 C 77 % 1019,9 hPa 0,0 l/m 6,6 km/h (2 Bft) S-SO 157 8,8 C 13,5 C 5,1 km/h (1 Bft)
27.10.2013 07:25 12,8 C 77 % 1020,3 hPa 0,0 l/m 6,1 km/h (2 Bft) S 180 8,9 C 13,7 C 10,5 km/h (2 Bft)
27.10.2013 07:30 13,0 C 75 % 1020,3 hPa 0,0 l/m 6,1 km/h (2 Bft) O-SO 112 8,7 C 13,8 C 6,6 km/h (2 Bft)
27.10.2013 07:35 13,0 C 75 % 1020,3 hPa 0,0 l/m 5,0 km/h (1 Bft) O-SO 112 8,7 C 13,9 C 8,9 km/h (2 Bft)
27.10.2013 07:40 13,2 C 75 % 1020,3 hPa 0,0 l/m 5,0 km/h (1 Bft) S 180 8,9 C 13,9 C 9,0 km/h (2 Bft)
27.10.2013 07:45 13,3 C 75 % 1020,7 hPa 0,0 l/m 6,6 km/h (2 Bft) SO 135 9,0 C 14,0 C 6,3 km/h (2 Bft)
27.10.2013 07:50 13,3 C 75 % 1020,7 hPa 0,0 l/m 6,8 km/h (2 Bft) S-SO 157 9,0 C 13,8 C 5,5 km/h (1 Bft)
27.10.2013 07:55 13,5 C 75 % 1020,7 hPa 0,0 l/m 6,1 km/h (2 Bft) S 180 9,2 C 14,2 C 8,0 km/h (2 Bft)
27.10.2013 08:00 13,5 C 75 % 1020,7 hPa 0,0 l/m 6,3 km/h (2 Bft) S 180 9,2 C 14,3 C 7,4 km/h (2 Bft)
27.10.2013 08:03 13,3 C 75 % 1020,2 hPa 0,0 l/m 6,1 km/h (2 Bft) SO 135 9,0 C 14,2 C 6,3 km/h (2 Bft)
27.10.2013 08:05 13,3 C 75 % 1020,2 hPa 0,0 l/m 6,1 km/h (2 Bft) SO 135 9,0 C 14,2 C 6,3 km/h (2 Bft)
27.10.2013 08:10 13,4 C 75 % 1020,2 hPa 0,0 l/m 6,3 km/h (2 Bft) S 180 9,1 C 14,1 C 8,2 km/h (2 Bft)
27.10.2013 08:15 12,9 C 75 % 1020,2 hPa 0,0 l/m 6,8 km/h (2 Bft) SO 135 8,6 C 13,6 C 12,7 km/h (3 Bft)
27.10.2013 08:20 12,8 C 75 % 1020,2 hPa 0,0 l/m 6,4 km/h (2 Bft) SO 135 8,5 C 13,6 C 5,5 km/h (1 Bft)
27.10.2013 08:25 12,8 C 75 % 1019,9 hPa 0,0 l/m 6,6 km/h (2 Bft) O-SO 112 8,5 C 13,4 C 8,4 km/h (2 Bft)
27.10.2013 08:30 12,8 C 75 % 1019,9 hPa 0,0 l/m 7,9 km/h (2 Bft) SO 135 8,5 C 12,3 C 12,2 km/h (2 Bft)
27.10.2013 08:35 12,9 C 75 % 1019,9 hPa 0,0 l/m 8,7 km/h (2 Bft) S-SO 157 8,6 C 11,9 C 12,9 km/h (3 Bft)
27.10.2013 08:40 13,0 C 74 % 1019,9 hPa 0,0 l/m 8,7 km/h (2 Bft) S 180 8,5 C 11,9 C 7,9 km/h (2 Bft)
27.10.2013 08:45 13,0 C 73 % 1020,3 hPa 0,0 l/m 9,0 km/h (2 Bft) SO 135 8,3 C 11,9 C 16,6 km/h (3 Bft)
27.10.2013 08:50 13,0 C 74 % 1020,3 hPa 0,0 l/m 8,0 km/h (2 Bft) S 180 8,5 C 12,6 C 10,0 km/h (2 Bft)
27.10.2013 08:55 13,2 C 73 % 1020,3 hPa 0,0 l/m 8,7 km/h (2 Bft) S 180 8,5 C 12,8 C 10,6 km/h (2 Bft)
27.10.2013 09:00 13,4 C 73 % 1020,3 hPa 0,0 l/m 10,3 km/h (2 Bft) S-SO 157 8,7 C 12,1 C 11,9 km/h (2 Bft)
27.10.2013 09:05 13,4 C 73 % 1020,1 hPa 0,0 l/m 10,5 km/h (2 Bft) SO 135 8,7 C 12,1 C 24,5 km/h (4 Bft)
27.10.2013 09:10 13,5 C 73 % 1020,1 hPa 0,0 l/m 9,8 km/h (2 Bft) S 180 8,8 C 12,7 C 10,6 km/h (2 Bft)
27.10.2013 09:15 13,4 C 73 % 1020,1 hPa 0,0 l/m 8,7 km/h (2 Bft) S 180 8,7 C 13,5 C 10,5 km/h (2 Bft)
27.10.2013 09:20 13,6 C 73 % 1020,1 hPa 0,0 l/m 7,4 km/h (2 Bft) S-SO 157 8,9 C 14,5 C 11,4 km/h (2 Bft)
27.10.2013 09:25 13,9 C 73 % 1020,1 hPa 0,0 l/m 7,2 km/h (2 Bft) S-SO 157 9,1 C 14,8 C 10,9 km/h (2 Bft)
27.10.2013 09:30 14,1 C 72 % 1020,1 hPa 0,0 l/m 8,0 km/h (2 Bft) S 180 9,1 C 14,5 C 10,1 km/h (2 Bft)
27.10.2013 09:35 14,1 C 72 % 1020,1 hPa 0,0 l/m 8,0 km/h (2 Bft) S 180 9,1 C 15,2 C 7,9 km/h (2 Bft)
27.10.2013 09:40 14,1 C 72 % 1020,1 hPa 0,0 l/m 7,6 km/h (2 Bft) S 180 9,1 C 15,7 C 8,7 km/h (2 Bft)
27.10.2013 09:45 14,3 C 71 % 1019,8 hPa 0,0 l/m 7,4 km/h (2 Bft) S 180 9,1 C 16,7 C 13,5 km/h (3 Bft)
27.10.2013 09:50 14,5 C 70 % 1019,8 hPa 0,0 l/m 8,2 km/h (2 Bft) S-SO 157 9,1 C 16,5 C 10,3 km/h (2 Bft)
27.10.2013 09:55 14,9 C 69 % 1019,8 hPa 0,0 l/m 9,7 km/h (2 Bft) S 180 9,3 C 16,4 C 13,5 km/h (3 Bft)
27.10.2013 10:00 15,5 C 68 % 1019,8 hPa 0,0 l/m 9,3 km/h (2 Bft) S 180 9,6 C 16,9 C 16,6 km/h (3 Bft)
27.10.2013 10:05 16,1 C 65 % 1020,2 hPa 0,0 l/m 9,7 km/h (2 Bft) S 180 9,5 C 16,5 C 8,9 km/h (2 Bft)
27.10.2013 10:10 16,2 C 63 % 1020,2 hPa 0,0 l/m 10,1 km/h (2 Bft) S-SW 202 9,1 C 16,2 C 9,3 km/h (2 Bft)
27.10.2013 10:15 15,9 C 66 % 1020,2 hPa 0,0 l/m 9,3 km/h (2 Bft) SO 135 9,6 C 15,8 C 9,5 km/h (2 Bft)
27.10.2013 10:20 15,5 C 66 % 1020,2 hPa 0,0 l/m 8,7 km/h (2 Bft) S 180 9,2 C 15,8 C 8,9 km/h (2 Bft)
27.10.2013 10:25 15,1 C 66 % 1020,2 hPa 0,0 l/m 9,5 km/h (2 Bft) S-SO 157 8,8 C 14,6 C 8,4 km/h (2 Bft)
27.10.2013 10:30 15,1 C 67 % 1020,2 hPa 0,0 l/m 9,2 km/h (2 Bft) S 180 9,0 C 14,5 C 6,1 km/h (2 Bft)
27.10.2013 10:35 15,1 C 67 % 1020,2 hPa 0,0 l/m 8,7 km/h (2 Bft) S 180 9,0 C 14,5 C 15,9 km/h (3 Bft)
27.10.2013 10:40 15,2 C 67 % 1020,2 hPa 0,0 l/m 8,7 km/h (2 Bft) S-SW 202 9,1 C 14,6 C 7,9 km/h (2 Bft)
27.10.2013 10:45 15,2 C 68 % 1019,9 hPa 0,0 l/m 8,5 km/h (2 Bft) S 180 9,3 C 14,9 C 7,2 km/h (2 Bft)
27.10.2013 10:50 15,4 C 67 % 1019,9 hPa 0,0 l/m 7,4 km/h (2 Bft) S-SW 202 9,3 C 15,5 C 8,4 km/h (2 Bft)
27.10.2013 10:55 15,5 C 68 % 1019,9 hPa 0,0 l/m 7,4 km/h (2 Bft) S-SO 157 9,6 C 15,7 C 8,0 km/h (2 Bft)
27.10.2013 11:00 15,6 C 66 % 1019,9 hPa 0,0 l/m 7,7 km/h (2 Bft) S 180 9,3 C 15,5 C 8,5 km/h (2 Bft)
27.10.2013 11:05 15,7 C 66 % 1019,4 hPa 0,0 l/m 8,0 km/h (2 Bft) S-SW 202 9,4 C 15,6 C 11,3 km/h (2 Bft)
27.10.2013 11:10 15,7 C 66 % 1019,4 hPa 0,0 l/m 8,2 km/h (2 Bft) S-SW 202 9,4 C 15,6 C 7,6 km/h (2 Bft)
27.10.2013 11:15 15,8 C 66 % 1019,4 hPa 0,0 l/m 9,0 km/h (2 Bft) S-SW 202 9,5 C 15,2 C 14,3 km/h (3 Bft)
27.10.2013 11:20 15,9 C 67 % 1019,4 hPa 0,0 l/m 8,5 km/h (2 Bft) S-SO 157 9,8 C 15,5 C 6,9 km/h (2 Bft)
27.10.2013 11:25 16,0 C 65 % 1019,2 hPa 0,0 l/m 7,2 km/h (2 Bft) S 180 9,4 C 16,3 C 5,8 km/h (2 Bft)
27.10.2013 11:30 16,2 C 65 % 1019,2 hPa 0,0 l/m 6,9 km/h (2 Bft) S-SO 157 9,6 C 16,5 C 7,9 km/h (2 Bft)
27.10.2013 11:35 16,2 C 64 % 1019,2 hPa 0,0 l/m 5,3 km/h (1 Bft) SO 135 9,4 C 17,2 C 7,7 km/h (2 Bft)
27.10.2013 11:40 16,2 C 63 % 1019,2 hPa 0,0 l/m 6,0 km/h (2 Bft) S 180 9,1 C 17,2 C 18,2 km/h (3 Bft)
27.10.2013 11:45 16,4 C 64 % 1019,1 hPa 0,0 l/m 6,8 km/h (2 Bft) S-SO 157 9,6 C 17,2 C 8,2 km/h (2 Bft)
27.10.2013 11:50 16,7 C 63 % 1019,1 hPa 0,0 l/m 5,8 km/h (2 Bft) S 180 9,6 C 17,5 C 6,9 km/h (2 Bft)
27.10.2013 11:55 17,0 C 63 % 1019,1 hPa 0,0 l/m 6,0 km/h (2 Bft) SO 135 9,9 C 17,7 C 4,3 km/h (1 Bft)
27.10.2013 12:00 17,0 C 61 % 1019,1 hPa 0,0 l/m 6,1 km/h (2 Bft) SO 135 9,4 C 18,0 C 9,2 km/h (2 Bft)
27.10.2013 12:05 16,6 C 62 % 1019,1 hPa 0,0 l/m 6,4 km/h (2 Bft) S 180 9,3 C 17,8 C 8,0 km/h (2 Bft)
27.10.2013 12:10 16,6 C 61 % 1019,1 hPa 0,0 l/m 8,5 km/h (2 Bft) S-SO 157 9,0 C 16,5 C 13,5 km/h (3 Bft)
27.10.2013 12:15 16,9 C 60 % 1019,1 hPa 0,0 l/m 8,7 km/h (2 Bft) S-SW 202 9,1 C 16,5 C 10,6 km/h (2 Bft)
27.10.2013 12:20 16,9 C 60 % 1019,1 hPa 0,0 l/m 7,9 km/h (2 Bft) S-SO 157 9,1 C 17,1 C 10,6 km/h (2 Bft)
27.10.2013 12:25 16,8 C 60 % 1018,4 hPa 0,0 l/m 7,7 km/h (2 Bft) S 180 9,0 C 17,1 C 8,7 km/h (2 Bft)
27.10.2013 12:30 16,8 C 59 % 1018,4 hPa 0,0 l/m 7,9 km/h (2 Bft) S 180 8,7 C 17,1 C 15,0 km/h (3 Bft)
27.10.2013 12:35 16,7 C 60 % 1018,4 hPa 0,0 l/m 7,2 km/h (2 Bft) SO 135 8,9 C 17,4 C 10,5 km/h (2 Bft)
27.10.2013 12:40 16,4 C 60 % 1018,4 hPa 0,0 l/m 8,0 km/h (2 Bft) S-SO 157 8,6 C 16,7 C 11,4 km/h (2 Bft)
27.10.2013 12:45 16,4 C 61 % 1018,4 hPa 0,0 l/m 8,5 km/h (2 Bft) W-SW 247 8,9 C 16,3 C 7,7 km/h (2 Bft)
27.10.2013 12:50 16,4 C 61 % 1018,4 hPa 0,0 l/m 7,7 km/h (2 Bft) S 180 8,9 C 16,6 C 8,4 km/h (2 Bft)
27.10.2013 12:55 16,1 C 62 % 1018,4 hPa 0,0 l/m 8,4 km/h (2 Bft) S-SW 202 8,8 C 16,0 C 9,7 km/h (2 Bft)
27.10.2013 13:00 16,1 C 63 % 1018,4 hPa 0,0 l/m 10,6 km/h (2 Bft) S-SW 202 9,1 C 14,9 C 11,3 km/h (2 Bft)
27.10.2013 13:05 16,2 C 64 % 1018,1 hPa 0,0 l/m 12,1 km/h (2 Bft) S 180 9,4 C 14,0 C 14,0 km/h (3 Bft)
27.10.2013 13:10 16,1 C 65 % 1018,1 hPa 0,0 l/m 11,9 km/h (2 Bft) O-SO 112 9,5 C 14,3 C 8,7 km/h (2 Bft)
27.10.2013 13:15 15,9 C 66 % 1018,1 hPa 0,0 l/m 12,9 km/h (3 Bft) S 180 9,6 C 13,4 C 16,1 km/h (3 Bft)
27.10.2013 13:20 16,1 C 65 % 1018,1 hPa 0,0 l/m 12,2 km/h (2 Bft) S 180 9,5 C 13,8 C 17,1 km/h (3 Bft)
27.10.2013 13:25 16,2 C 65 % 1017,9 hPa 0,0 l/m 9,5 km/h (2 Bft) S-SW 202 9,6 C 15,4 C 10,0 km/h (2 Bft)
27.10.2013 13:30 16,7 C 64 % 1017,9 hPa 0,0 l/m 8,4 km/h (2 Bft) S 180 9,9 C 16,5 C 8,9 km/h (2 Bft)
27.10.2013 13:35 16,6 C 64 % 1017,9 hPa 0,0 l/m 7,9 km/h (2 Bft) SO 135 9,8 C 17,4 C 9,2 km/h (2 Bft)
27.10.2013 13:40 16,5 C 64 % 1017,9 hPa 0,0 l/m 8,2 km/h (2 Bft) S 180 9,7 C 17,3 C 10,5 km/h (2 Bft)
27.10.2013 13:45 16,4 C 65 % 1018,1 hPa 0,0 l/m 8,2 km/h (2 Bft) S-SO 157 9,8 C 17,5 C 7,7 km/h (2 Bft)
27.10.2013 13:50 16,4 C 65 % 1018,1 hPa 0,0 l/m 7,6 km/h (2 Bft) S 180 9,8 C 17,8 C 12,1 km/h (2 Bft)
27.10.2013 13:55 16,2 C 65 % 1018,1 hPa 0,0 l/m 6,9 km/h (2 Bft) S-SO 157 9,6 C 17,8 C 10,9 km/h (2 Bft)
27.10.2013 14:00 16,0 C 66 % 1018,1 hPa 0,0 l/m 7,2 km/h (2 Bft) O-SO 112 9,7 C 17,2 C 3,9 km/h (1 Bft)
27.10.2013 14:03 15,9 C 67 % 1017,4 hPa 0,0 l/m 7,1 km/h (2 Bft) S-SO 157 9,8 C 16,9 C 10,5 km/h (2 Bft)
27.10.2013 14:05 15,9 C 67 % 1017,4 hPa 0,0 l/m 7,1 km/h (2 Bft) S-SO 157 9,8 C 16,9 C 10,5 km/h (2 Bft)
27.10.2013 14:10 16,2 C 66 % 1017,4 hPa 0,0 l/m 6,0 km/h (2 Bft) SO 135 9,8 C 17,2 C 6,9 km/h (2 Bft)
27.10.2013 14:15 16,4 C 66 % 1017,4 hPa 0,0 l/m 5,5 km/h (1 Bft) S-SO 157 10,0 C 17,3 C 6,8 km/h (2 Bft)
27.10.2013 14:20 16,3 C 65 % 1017,4 hPa 0,0 l/m 5,0 km/h (1 Bft) S 180 9,7 C 17,3 C 5,5 km/h (1 Bft)
27.10.2013 14:25 16,1 C 66 % 1017,0 hPa 0,0 l/m 4,8 km/h (1 Bft) S 180 9,7 C 17,1 C 4,8 km/h (1 Bft)
27.10.2013 14:30 16,0 C 66 % 1017,0 hPa 0,0 l/m 4,8 km/h (1 Bft) S-SO 157 9,7 C 17,0 C 4,2 km/h (1 Bft)
27.10.2013 14:35 16,1 C 68 % 1017,0 hPa 0,0 l/m 4,5 km/h (1 Bft) SO 135 10,2 C 16,9 C 3,9 km/h (1 Bft)
27.10.2013 14:40 16,2 C 68 % 1017,0 hPa 0,0 l/m 4,3 km/h (1 Bft) S-SO 157 10,3 C 17,0 C 5,6 km/h (1 Bft)
27.10.2013 14:45 16,1 C 67 % 1017,1 hPa 0,0 l/m 4,7 km/h (1 Bft) S 180 10,0 C 17,0 C 6,6 km/h (2 Bft)
27.10.2013 14:50 15,9 C 67 % 1017,1 hPa 0,0 l/m 5,3 km/h (1 Bft) S-SO 157 9,8 C 16,9 C 6,6 km/h (2 Bft)
27.10.2013 14:55 15,7 C 68 % 1017,1 hPa 0,0 l/m 5,3 km/h (1 Bft) S-SW 202 9,8 C 16,7 C 6,1 km/h (2 Bft)
27.10.2013 15:00 15,6 C 68 % 1017,1 hPa 0,0 l/m 4,5 km/h (1 Bft) S 180 9,7 C 16,4 C 3,2 km/h (1 Bft)
27.10.2013 15:05 15,3 C 69 % 1016,9 hPa 0,0 l/m 3,5 km/h (1 Bft) S-SW 202 9,6 C 16,1 C 2,4 km/h (1 Bft)
27.10.2013 15:10 15,1 C 71 % 1016,9 hPa 0,0 l/m 2,9 km/h (1 Bft) S 180 9,9 C 15,6 C 4,0 km/h (1 Bft)
27.10.2013 15:15 15,2 C 72 % 1016,9 hPa 0,0 l/m 3,5 km/h (1 Bft) SO 135 10,2 C 15,4 C 4,5 km/h (1 Bft)
27.10.2013 15:20 15,1 C 72 % 1016,9 hPa 0,0 l/m 4,7 km/h (1 Bft) S 180 10,1 C 15,4 C 4,3 km/h (1 Bft)
27.10.2013 15:25 14,7 C 74 % 1017,1 hPa 0,0 l/m 5,1 km/h (1 Bft) S 180 10,1 C 15,3 C 5,5 km/h (1 Bft)
27.10.2013 15:30 14,6 C 74 % 1017,1 hPa 0,0 l/m 5,5 km/h (1 Bft) S-SO 157 10,0 C 15,2 C 7,2 km/h (2 Bft)
27.10.2013 15:35 14,5 C 73 % 1017,1 hPa 0,0 l/m 6,9 km/h (2 Bft) S 180 9,7 C 14,8 C 7,2 km/h (2 Bft)
27.10.2013 15:40 14,4 C 74 % 1017,1 hPa 0,0 l/m 7,6 km/h (2 Bft) S-SW 202 9,8 C 14,2 C 3,9 km/h (1 Bft)
27.10.2013 15:45 14,3 C 74 % 1017,2 hPa 0,0 l/m 8,0 km/h (2 Bft) S-SW 202 9,7 C 13,8 C 24,9 km/h (4 Bft)
27.10.2013 15:50 14,3 C 74 % 1017,2 hPa 0,0 l/m 7,9 km/h (2 Bft) S-SO 157 9,7 C 13,8 C 10,1 km/h (2 Bft)
27.10.2013 15:55 13,5 C 79 % 1017,2 hPa 0,0 l/m 9,5 km/h (2 Bft) S-SO 157 9,9 C 12,5 C 14,0 km/h (3 Bft)
27.10.2013 16:00 13,2 C 82 % 1017,2 hPa 0,0 l/m 9,5 km/h (2 Bft) S-SO 157 10,2 C 12,5 C 14,0 km/h (3 Bft)
27.10.2013 16:05 12,7 C 87 % 1017,3 hPa 0,7 l/m 11,9 km/h (2 Bft) S-SW 202 10,6 C 8,4 C 11,9 km/h (2 Bft)
27.10.2013 16:10 12,4 C 88 % 1017,3 hPa 2,1 l/m 10,3 km/h (2 Bft) NO 45 10,5 C 9,2 C 6,9 km/h (2 Bft)
27.10.2013 16:15 12,2 C 89 % 1017,3 hPa 0,7 l/m 11,6 km/h (2 Bft) S 180 10,4 C 8,0 C 14,2 km/h (3 Bft)
27.10.2013 16:20 12,1 C 90 % 1017,3 hPa 0,0 l/m 10,9 km/h (2 Bft) O-SO 112 10,5 C 8,4 C 18,7 km/h (3 Bft)
27.10.2013 16:25 12,1 C 91 % 1017,3 hPa 0,0 l/m 10,9 km/h (2 Bft) S-SO 157 10,7 C 8,4 C 13,8 km/h (3 Bft)
27.10.2013 16:30 12,1 C 92 % 1017,3 hPa 0,0 l/m 11,1 km/h (2 Bft) S 180 10,8 C 8,3 C 18,2 km/h (3 Bft)
27.10.2013 16:35 12,2 C 92 % 1017,3 hPa 0,0 l/m 10,1 km/h (2 Bft) S 180 10,9 C 9,0 C 9,0 km/h (2 Bft)
27.10.2013 16:40 12,2 C 92 % 1017,3 hPa 0,0 l/m 10,1 km/h (2 Bft) S-SO 157 10,9 C 9,0 C 13,7 km/h (3 Bft)
27.10.2013 16:45 12,1 C 92 % 1017,8 hPa 0,7 l/m 9,5 km/h (2 Bft) S 180 10,8 C 9,4 C 15,8 km/h (3 Bft)
27.10.2013 16:50 12,2 C 93 % 1017,8 hPa 0,0 l/m 9,7 km/h (2 Bft) S 180 11,1 C 9,3 C 10,8 km/h (2 Bft)
27.10.2013 16:55 12,1 C 93 % 1017,8 hPa 0,7 l/m 8,7 km/h (2 Bft) S 180 11,0 C 10,1 C 13,5 km/h (3 Bft)
27.10.2013 17:00 12,0 C 93 % 1017,8 hPa 0,7 l/m 7,7 km/h (2 Bft) S 180 10,9 C 10,8 C 12,4 km/h (3 Bft)
27.10.2013 17:05 12,0 C 93 % 1017,3 hPa 0,0 l/m 10,5 km/h (2 Bft) S-SW 202 10,9 C 8,8 C 13,2 km/h (3 Bft)
27.10.2013 17:10 12,0 C 93 % 1017,3 hPa 0,0 l/m 11,4 km/h (2 Bft) S 180 10,9 C 8,1 C 12,6 km/h (3 Bft)
27.10.2013 17:15 11,9 C 94 % 1017,3 hPa 0,0 l/m 10,5 km/h (2 Bft) S 180 11,0 C 8,8 C 10,8 km/h (2 Bft)
27.10.2013 17:20 12,0 C 93 % 1017,3 hPa 0,0 l/m 12,4 km/h (3 Bft) S 180 10,9 C 7,5 C 20,8 km/h (4 Bft)
27.10.2013 17:25 12,0 C 93 % 1017,7 hPa 0,0 l/m 12,4 km/h (3 Bft) S-SO 157 10,9 C 7,5 C 9,8 km/h (2 Bft)
27.10.2013 17:30 12,1 C 94 % 1017,7 hPa 0,0 l/m 12,7 km/h (3 Bft) S 180 11,2 C 7,5 C 29,0 km/h (5 Bft)
27.10.2013 17:35 12,2 C 93 % 1017,7 hPa 0,0 l/m 13,4 km/h (3 Bft) S 180 11,1 C 7,3 C 14,6 km/h (3 Bft)
27.10.2013 17:40 12,2 C 93 % 1017,7 hPa 0,0 l/m 11,7 km/h (2 Bft) S-SO 157 11,1 C 8,0 C 13,7 km/h (3 Bft)
27.10.2013 17:45 12,1 C 93 % 1018,2 hPa 0,0 l/m 10,6 km/h (2 Bft) S 180 11,0 C 8,8 C 15,0 km/h (3 Bft)
27.10.2013 17:50 12,2 C 93 % 1018,2 hPa 0,0 l/m 11,7 km/h (2 Bft) S-SO 157 11,1 C 8,3 C 17,9 km/h (3 Bft)
27.10.2013 17:55 12,2 C 93 % 1018,2 hPa 0,0 l/m 11,6 km/h (2 Bft) SO 135 11,1 C 8,3 C 5,3 km/h (1 Bft)
27.10.2013 18:00 12,1 C 93 % 1018,2 hPa 0,0 l/m 9,3 km/h (2 Bft) S-SO 157 11,0 C 9,9 C 11,6 km/h (2 Bft)
27.10.2013 18:05 12,0 C 93 % 1017,7 hPa 0,0 l/m 9,2 km/h (2 Bft) S 180 10,9 C 9,9 C 15,8 km/h (3 Bft)
27.10.2013 18:10 12,2 C 93 % 1017,7 hPa 0,0 l/m 11,6 km/h (2 Bft) S 180 11,1 C 8,7 C 14,0 km/h (3 Bft)
27.10.2013 18:15 12,2 C 93 % 1017,7 hPa 0,0 l/m 12,4 km/h (3 Bft) S 180 11,1 C 8,5 C 16,4 km/h (3 Bft)
27.10.2013 18:20 12,2 C 93 % 1017,7 hPa 0,0 l/m 10,5 km/h (2 Bft) S 180 11,1 C 9,7 C 8,0 km/h (2 Bft)
27.10.2013 18:25 12,1 C 93 % 1018,1 hPa 0,0 l/m 9,5 km/h (2 Bft) S 180 11,0 C 10,4 C 11,6 km/h (2 Bft)
27.10.2013 18:30 12,1 C 92 % 1018,1 hPa 0,0 l/m 9,0 km/h (2 Bft) S-SO 157 10,8 C 10,8 C 9,2 km/h (2 Bft)
27.10.2013 18:35 12,0 C 93 % 1018,1 hPa 0,0 l/m 7,7 km/h (2 Bft) S-SO 157 10,9 C 11,8 C 8,7 km/h (2 Bft)
27.10.2013 18:40 11,9 C 93 % 1018,1 hPa 0,0 l/m 6,8 km/h (2 Bft) S-SO 157 10,8 C 12,5 C 7,6 km/h (2 Bft)
27.10.2013 18:45 12,0 C 93 % 1018,3 hPa 0,0 l/m 6,0 km/h (2 Bft) S 180 10,9 C 12,8 C 4,7 km/h (1 Bft)
27.10.2013 18:50 12,0 C 93 % 1018,3 hPa 0,0 l/m 6,1 km/h (2 Bft) O 90 10,9 C 12,7 C 7,9 km/h (2 Bft)
27.10.2013 18:55 12,1 C 93 % 1018,3 hPa 0,0 l/m 6,0 km/h (2 Bft) S 180 11,0 C 12,8 C 6,4 km/h (2 Bft)
27.10.2013 18:59 12,0 C 93 % 1018,3 hPa 0,0 l/m 5,1 km/h (1 Bft) S-SO 157 10,9 C 12,8 C 4,5 km/h (1 Bft)
27.10.2013 19:00 12,0 C 93 % 1018,3 hPa 0,0 l/m 5,1 km/h (1 Bft) S-SO 157 10,9 C 12,8 C 4,5 km/h (1 Bft)
27.10.2013 19:05 11,9 C 93 % 1018,0 hPa 0,0 l/m 4,7 km/h (1 Bft) S 180 10,8 C 12,7 C 5,3 km/h (1 Bft)
27.10.2013 19:10 12,0 C 93 % 1018,0 hPa 0,0 l/m 4,8 km/h (1 Bft) S 180 10,9 C 12,7 C 6,3 km/h (2 Bft)
27.10.2013 19:15 11,8 C 93 % 1018,0 hPa 0,0 l/m 5,0 km/h (1 Bft) S 180 10,7 C 12,7 C 5,8 km/h (2 Bft)
27.10.2013 19:20 11,7 C 93 % 1018,0 hPa 0,0 l/m 4,7 km/h (1 Bft) SO 135 10,6 C 12,7 C 3,4 km/h (1 Bft)
27.10.2013 19:25 11,7 C 93 % 1018,2 hPa 0,0 l/m 3,7 km/h (1 Bft) S-SO 157 10,6 C 12,5 C 2,9 km/h (1 Bft)
27.10.2013 19:30 11,8 C 93 % 1018,2 hPa 0,0 l/m 2,7 km/h (1 Bft) S-SO 157 10,7 C 12,4 C 3,4 km/h (1 Bft)
27.10.2013 19:35 11,9 C 93 % 1018,2 hPa 0,0 l/m 3,1 km/h (1 Bft) SO 135 10,8 C 12,5 C 3,9 km/h (1 Bft)
27.10.2013 19:40 11,9 C 93 % 1018,2 hPa 0,0 l/m 3,9 km/h (1 Bft) S-SO 157 10,8 C 12,7 C 6,0 km/h (2 Bft)
27.10.2013 19:45 11,7 C 93 % 1018,1 hPa 0,0 l/m 4,2 km/h (1 Bft) S-SO 157 10,6 C 12,7 C 4,8 km/h (1 Bft)
27.10.2013 19:50 11,6 C 93 % 1018,1 hPa 0,0 l/m 3,9 km/h (1 Bft) S-SO 157 10,5 C 12,5 C 6,0 km/h (2 Bft)
27.10.2013 19:55 11,8 C 93 % 1018,1 hPa 0,0 l/m 3,5 km/h (1 Bft) S-SO 157 10,7 C 12,5 C 2,6 km/h (1 Bft)
27.10.2013 20:00 12,0 C 93 % 1018,1 hPa 0,0 l/m 4,8 km/h (1 Bft) S-SO 157 10,9 C 12,6 C 10,8 km/h (2 Bft)
27.10.2013 20:05 12,1 C 93 % 1018,1 hPa 0,0 l/m 6,8 km/h (2 Bft) S 180 11,0 C 12,4 C 6,6 km/h (2 Bft)
27.10.2013 20:10 12,0 C 92 % 1018,1 hPa 0,0 l/m 6,4 km/h (2 Bft) S-SO 157 10,7 C 12,7 C 8,7 km/h (2 Bft)
27.10.2013 20:15 12,0 C 92 % 1018,1 hPa 0,0 l/m 6,8 km/h (2 Bft) S-SO 157 10,7 C 12,5 C 9,5 km/h (2 Bft)
27.10.2013 20:20 12,1 C 91 % 1018,1 hPa 0,0 l/m 7,1 km/h (2 Bft) O-SO 112 10,7 C 12,4 C 11,4 km/h (2 Bft)
27.10.2013 20:25 12,1 C 91 % 1018,2 hPa 0,0 l/m 6,9 km/h (2 Bft) S 180 10,7 C 12,6 C 7,2 km/h (2 Bft)
27.10.2013 20:30 12,0 C 90 % 1018,2 hPa 0,0 l/m 7,1 km/h (2 Bft) S 180 10,4 C 12,5 C 8,9 km/h (2 Bft)
27.10.2013 20:35 12,0 C 89 % 1018,2 hPa 0,0 l/m 7,6 km/h (2 Bft) S-SO 157 10,2 C 12,3 C 8,9 km/h (2 Bft)
27.10.2013 20:40 12,0 C 89 % 1018,2 hPa 0,0 l/m 7,9 km/h (2 Bft) S 180 10,2 C 12,1 C 10,0 km/h (2 Bft)
27.10.2013 20:45 12,0 C 89 % 1018,3 hPa 0,0 l/m 7,2 km/h (2 Bft) S 180 10,2 C 12,6 C 10,3 km/h (2 Bft)
27.10.2013 20:50 12,1 C 89 % 1018,3 hPa 0,0 l/m 6,6 km/h (2 Bft) SO 135 10,3 C 13,0 C 6,0 km/h (2 Bft)
27.10.2013 20:55 12,1 C 89 % 1018,3 hPa 0,0 l/m 5,8 km/h (2 Bft) S-SO 157 10,3 C 13,2 C 7,4 km/h (2 Bft)
27.10.2013 21:00 12,1 C 89 % 1018,3 hPa 0,0 l/m 5,3 km/h (1 Bft) SO 135 10,3 C 13,2 C 5,5 km/h (1 Bft)
27.10.2013 21:05 12,1 C 89 % 1018,3 hPa 0,0 l/m 5,8 km/h (2 Bft) S-SO 157 10,3 C 13,2 C 10,3 km/h (2 Bft)
27.10.2013 21:10 12,2 C 89 % 1018,3 hPa 0,0 l/m 6,1 km/h (2 Bft) O-SO 112 10,4 C 13,2 C 11,1 km/h (2 Bft)
27.10.2013 21:15 12,3 C 89 % 1018,3 hPa 0,0 l/m 6,3 km/h (2 Bft) SO 135 10,5 C 13,3 C 6,9 km/h (2 Bft)
27.10.2013 21:20 12,4 C 89 % 1018,3 hPa 0,0 l/m 6,3 km/h (2 Bft) S-SW 202 10,6 C 13,3 C 9,0 km/h (2 Bft)
27.10.2013 21:25 12,4 C 89 % 1018,2 hPa 0,0 l/m 6,6 km/h (2 Bft) S 180 10,6 C 13,4 C 12,7 km/h (3 Bft)
27.10.2013 21:30 12,4 C 89 % 1018,2 hPa 0,0 l/m 7,4 km/h (2 Bft) SO 135 10,6 C 12,7 C 10,0 km/h (2 Bft)
27.10.2013 21:35 12,3 C 89 % 1018,2 hPa 0,0 l/m 7,2 km/h (2 Bft) S 180 10,5 C 12,7 C 6,8 km/h (2 Bft)
27.10.2013 21:40 12,3 C 89 % 1018,2 hPa 0,0 l/m 6,9 km/h (2 Bft) SO 135 10,5 C 13,0 C 8,2 km/h (2 Bft)
27.10.2013 21:45 12,3 C 89 % 1018,6 hPa 0,0 l/m 6,1 km/h (2 Bft) S-SO 157 10,5 C 13,2 C 8,7 km/h (2 Bft)
27.10.2013 21:50 12,2 C 89 % 1018,6 hPa 0,0 l/m 5,8 km/h (2 Bft) S-SO 157 10,4 C 12,9 C 7,7 km/h (2 Bft)
27.10.2013 21:55 12,2 C 89 % 1018,6 hPa 0,0 l/m 6,4 km/h (2 Bft) S 180 10,4 C 12,7 C 8,0 km/h (2 Bft)
27.10.2013 22:00 12,2 C 89 % 1018,6 hPa 0,0 l/m 6,4 km/h (2 Bft) S 180 10,4 C 12,7 C 7,6 km/h (2 Bft)
27.10.2013 22:05 12,3 C 88 % 1018,6 hPa 0,0 l/m 6,6 km/h (2 Bft) S 180 10,4 C 12,7 C 6,8 km/h (2 Bft)
27.10.2013 22:10 12,3 C 89 % 1018,6 hPa 0,0 l/m 6,8 km/h (2 Bft) S 180 10,5 C 12,4 C 7,2 km/h (2 Bft)
27.10.2013 22:15 12,2 C 89 % 1018,6 hPa 0,0 l/m 5,5 km/h (1 Bft) O-SO 112 10,4 C 12,7 C 2,3 km/h (1 Bft)
27.10.2013 22:20 12,0 C 89 % 1018,6 hPa 0,0 l/m 4,2 km/h (1 Bft) S 180 10,2 C 12,3 C 3,1 km/h (1 Bft)
27.10.2013 22:25 11,8 C 90 % 1018,6 hPa 0,0 l/m 2,6 km/h (1 Bft) S-SO 157 10,2 C 12,0 C 3,2 km/h (1 Bft)
27.10.2013 22:30 11,9 C 90 % 1018,6 hPa 0,0 l/m 2,4 km/h (1 Bft) SO 135 10,3 C 11,8 C 3,1 km/h (1 Bft)
27.10.2013 22:35 11,6 C 91 % 1018,6 hPa 0,0 l/m 1,9 km/h (1 Bft) O 90 10,2 C 11,7 C 2,7 km/h (1 Bft)
27.10.2013 22:40 11,6 C 91 % 1018,6 hPa 0,0 l/m 1,8 km/h (1 Bft) O 90 10,2 C 11,7 C 2,7 km/h (1 Bft)
27.10.2013 22:45 11,5 C 91 % 1018,3 hPa 0,0 l/m 1,6 km/h (1 Bft) O 90 10,1 C 11,5 C 4,7 km/h (1 Bft)
27.10.2013 22:50 11,4 C 91 % 1018,3 hPa 0,0 l/m 1,1 km/h (1 Bft) N-NO 22 10,0 C 11,5 C 1,8 km/h (1 Bft)
27.10.2013 22:55 11,3 C 91 % 1018,3 hPa 0,0 l/m 1,9 km/h (1 Bft) NO 45 9,9 C 11,5 C 3,2 km/h (1 Bft)
27.10.2013 23:00 11,3 C 91 % 1018,3 hPa 0,0 l/m 2,9 km/h (1 Bft) NO 45 9,9 C 11,4 C 4,8 km/h (1 Bft)
27.10.2013 23:05 11,2 C 92 % 1017,8 hPa 0,0 l/m 4,2 km/h (1 Bft) NO 45 9,9 C 11,3 C 5,3 km/h (1 Bft)
27.10.2013 23:10 11,1 C 92 % 1017,8 hPa 0,0 l/m 3,5 km/h (1 Bft) SO 135 9,8 C 11,2 C 0,0 km/h (0 Bft)
27.10.2013 23:15 10,6 C 92 % 1017,8 hPa 0,0 l/m 1,1 km/h (1 Bft) SO 135 9,4 C 11,0 C 0,0 km/h (0 Bft)
27.10.2013 23:20 10,7 C 92 % 1017,8 hPa 0,0 l/m 0,3 km/h (0 Bft) N-NO 22 9,5 C 10,9 C 2,7 km/h (1 Bft)
27.10.2013 23:25 10,5 C 92 % 1017,6 hPa 0,0 l/m 0,6 km/h (0 Bft) N-NO 22 9,3 C 10,8 C 0,0 km/h (0 Bft)
27.10.2013 23:30 10,3 C 92 % 1017,6 hPa 0,0 l/m 1,0 km/h (0 Bft) SO 135 9,1 C 10,7 C 1,8 km/h (1 Bft)
27.10.2013 23:35 10,2 C 93 % 1017,6 hPa 0,0 l/m 1,1 km/h (1 Bft) O-SO 112 9,1 C 10,5 C 2,6 km/h (1 Bft)
27.10.2013 23:40 10,4 C 93 % 1017,6 hPa 0,0 l/m 1,8 km/h (1 Bft) O 90 9,3 C 10,5 C 2,9 km/h (1 Bft)
27.10.2013 23:45 10,8 C 93 % 1017,9 hPa 0,0 l/m 3,2 km/h (1 Bft) O 90 9,7 C 10,7 C 4,0 km/h (1 Bft)
27.10.2013 23:50 10,7 C 93 % 1017,9 hPa 0,0 l/m 3,5 km/h (1 Bft) O-NO 67 9,6 C 10,8 C 4,0 km/h (1 Bft)
27.10.2013 23:55 10,7 C 93 % 1017,9 hPa 0,0 l/m 3,7 km/h (1 Bft) NO 45 9,6 C 10,8 C 3,7 km/h (1 Bft)
_ Min-Zeit 03:05 12:30 15:20 - 02:50 - - 05:10 17:35 23:25
Minimum _ 7,3 C 59 % 1016,9 hPa - 0,0 km/h (0 Bft) - - 4,4 C 7,3 C 0,0 km/h (0 Bft)
_ Max-Zeit 12:00 17:30 08:00 16:10 17:35 - - 17:30 12:00 17:30
Maximum _ 17,0 C 94 % 1020,7 hPa 2,1 l/m 13,4 km/h
S (3 Bft)
- - 11,2 C 18,0 C 29,0 km/h
S (5 Bft)
Durchschnitt _ 12,3 C 80 % 1018,7 hPa #5,5 l/m 5,4 km/h (1 Bft) S - 8,9 C 12,2 C 6,8 km/h (2 Bft)